createdAt,value
2023-02-13T00:01:20.598Z,34.28
2023-02-13T00:03:48.851Z,34.13
2023-02-13T00:06:17.519Z,33.98
2023-02-13T00:08:47.224Z,33.65
2023-02-13T00:11:15.965Z,33.82
2023-02-13T00:13:44.404Z,33.66
2023-02-13T00:16:13.129Z,33.81
2023-02-13T00:18:41.407Z,34.01
2023-02-13T00:21:12.243Z,33.95
2023-02-13T00:23:41.446Z,33.85
2023-02-13T00:26:13.583Z,33.55
2023-02-13T00:28:42.048Z,33.84
2023-02-13T00:31:13.489Z,33.70
2023-02-13T00:33:42.005Z,33.92
2023-02-13T00:36:12.207Z,33.93
2023-02-13T00:38:41.655Z,33.94
2023-02-13T00:41:12.373Z,33.83
2023-02-13T00:43:41.088Z,34.15
2023-02-13T00:46:09.778Z,33.96
2023-02-13T00:48:39.313Z,33.98
2023-02-13T00:51:09.106Z,33.58
2023-02-13T00:53:38.034Z,34.00
2023-02-13T00:56:07.810Z,33.97
2023-02-13T00:58:37.632Z,34.11
2023-02-13T01:01:06.450Z,33.97
2023-02-13T01:03:36.738Z,34.00
2023-02-13T01:06:06.713Z,33.65
2023-02-13T01:08:35.156Z,34.01
2023-02-13T01:11:03.780Z,34.13
2023-02-13T01:13:32.250Z,33.97
2023-02-13T01:16:02.358Z,34.26
2023-02-13T01:18:30.823Z,34.21
2023-02-13T01:21:01.460Z,34.36
2023-02-13T01:23:32.193Z,34.18
2023-02-13T01:26:01.089Z,34.45
2023-02-13T01:28:29.765Z,34.57
2023-02-13T01:30:59.528Z,34.74
2023-02-13T01:33:30.670Z,34.45
2023-02-13T01:36:00.527Z,34.73
2023-02-13T01:38:28.977Z,34.69
2023-02-13T01:40:57.761Z,34.50
2023-02-13T01:43:26.522Z,34.68
2023-02-13T01:45:57.895Z,34.20
2023-02-13T01:48:27.993Z,34.71
2023-02-13T01:51:00.103Z,34.48
2023-02-13T01:53:31.668Z,34.86
2023-02-13T01:56:02.568Z,34.86
2023-02-13T01:58:33.756Z,34.84
2023-02-13T02:01:02.745Z,35.17
2023-02-13T02:03:33.385Z,35.00
2023-02-13T02:06:03.906Z,35.10
2023-02-13T02:08:32.846Z,35.50
2023-02-13T02:11:07.834Z,35.36
2023-02-13T02:13:36.162Z,35.90
2023-02-13T02:16:04.760Z,36.12
2023-02-13T02:18:33.054Z,36.34
2023-02-13T02:21:32.592Z,35.44
2023-02-13T02:24:26.015Z,35.73
2023-02-13T02:27:21.085Z,36.13
2023-02-13T02:30:09.746Z,35.91
2023-02-13T02:32:57.756Z,36.16
2023-02-13T02:35:32.335Z,36.41
2023-02-13T02:38:10.055Z,36.34
2023-02-13T02:40:48.571Z,36.76
2023-02-13T02:43:29.862Z,36.56
2023-02-13T02:46:05.725Z,36.57
2023-02-13T02:49:01.745Z,36.68
2023-02-13T02:51:35.529Z,36.91
2023-02-13T02:54:30.487Z,36.98
2023-02-13T02:57:04.033Z,36.90
2023-02-13T02:59:50.725Z,37.30
2023-02-13T03:02:45.686Z,37.49
2023-02-13T03:05:39.959Z,37.25
2023-02-13T03:08:08.758Z,37.55
2023-02-13T03:10:56.205Z,37.56
2023-02-13T03:13:40.865Z,36.50
2023-02-13T03:16:31.107Z,36.95
2023-02-13T03:19:17.545Z,37.57
2023-02-13T03:22:09.116Z,37.17
2023-02-13T03:24:45.555Z,37.23
2023-02-13T03:27:39.362Z,37.30
2023-02-13T03:30:17.121Z,37.25
2023-02-13T03:32:51.693Z,37.17
2023-02-13T03:35:56.975Z,36.75
2023-02-13T03:38:31.452Z,37.16
2023-02-13T03:41:21.908Z,37.31
2023-02-13T03:44:08.245Z,36.76
2023-02-13T03:46:40.035Z,37.47
2023-02-13T03:49:27.354Z,37.47
2023-02-13T03:51:59.428Z,37.34
2023-02-13T03:54:50.296Z,37.13
2023-02-13T03:57:39.387Z,37.20
2023-02-13T04:00:12.447Z,37.18
2023-02-13T04:02:44.190Z,37.40
2023-02-13T04:05:17.359Z,37.02
2023-02-13T04:07:45.887Z,37.49
2023-02-13T04:10:17.028Z,37.42
2023-02-13T04:12:52.516Z,37.04
2023-02-13T04:15:23.706Z,37.18
2023-02-13T04:17:57.154Z,37.25
2023-02-13T04:20:28.842Z,37.19
2023-02-13T04:22:57.337Z,37.38
2023-02-13T04:25:27.189Z,37.13
2023-02-13T04:27:55.570Z,37.50
2023-02-13T04:30:24.164Z,37.40
2023-02-13T04:32:54.194Z,37.55
2023-02-13T04:35:23.183Z,37.54
2023-02-13T04:37:51.459Z,37.54
2023-02-13T04:40:20.604Z,37.32
2023-02-13T04:42:50.772Z,37.33
2023-02-13T04:45:19.426Z,37.61
2023-02-13T04:47:51.650Z,37.00
2023-02-13T04:50:20.608Z,37.48
2023-02-13T04:52:49.574Z,37.50
2023-02-13T04:55:18.218Z,37.60
2023-02-13T04:57:46.718Z,37.61
2023-02-13T05:00:17.371Z,37.53
2023-02-13T05:02:45.843Z,37.50
2023-02-13T05:05:14.809Z,37.54
2023-02-13T05:07:43.143Z,37.57
2023-02-13T05:10:13.022Z,37.43
2023-02-13T05:12:42.014Z,37.60
2023-02-13T05:15:11.194Z,37.61
2023-02-13T05:17:41.460Z,37.45
2023-02-13T05:20:10.815Z,37.76
2023-02-13T05:22:57.148Z,37.62
2023-02-13T05:25:25.767Z,36.97
2023-02-13T05:27:54.315Z,36.95
2023-02-13T05:30:22.084Z,37.34
2023-02-13T05:32:52.085Z,37.39
2023-02-13T05:35:20.738Z,37.53
2023-02-13T05:37:49.722Z,37.23
2023-02-13T05:40:18.963Z,37.08
2023-02-13T05:42:47.433Z,37.11
2023-02-13T05:45:16.262Z,37.26
2023-02-13T05:47:44.722Z,37.31
2023-02-13T05:50:14.836Z,37.10
2023-02-13T05:52:43.207Z,37.52
2023-02-13T05:55:11.941Z,37.58
2023-02-13T05:57:40.355Z,37.22
2023-02-13T06:00:10.272Z,37.36
2023-02-13T06:02:38.585Z,37.44
2023-02-13T06:05:07.642Z,37.07
2023-02-13T06:07:37.305Z,37.06
2023-02-13T06:10:06.626Z,37.16
2023-02-13T06:12:35.016Z,37.29
2023-02-13T06:15:03.651Z,37.19
2023-02-13T06:17:32.029Z,37.09
2023-02-13T06:20:00.583Z,36.96
2023-02-13T06:22:29.145Z,37.33
2023-02-13T06:24:59.291Z,37.05
2023-02-13T06:27:27.676Z,37.16
2023-02-13T06:29:56.301Z,36.91
2023-02-13T06:32:24.508Z,37.00
2023-02-13T06:34:53.355Z,36.86
2023-02-13T06:37:21.678Z,36.75
2023-02-13T06:39:50.548Z,36.93
2023-02-13T06:42:20.693Z,36.52
2023-02-13T06:44:49.513Z,36.87
2023-02-13T06:47:17.897Z,37.05
2023-02-13T06:49:46.593Z,36.98
2023-02-13T06:52:15.003Z,36.50
2023-02-13T06:54:47.786Z,36.26
2023-02-13T06:57:17.066Z,36.03
2023-02-13T06:59:47.005Z,36.22
2023-02-13T07:02:15.454Z,36.71
2023-02-13T07:04:44.060Z,35.83
2023-02-13T07:07:12.515Z,34.15
2023-02-13T07:09:41.808Z,33.22
2023-02-13T07:12:10.180Z,32.03
2023-02-13T07:14:38.934Z,31.84
2023-02-13T07:17:11.300Z,31.92
2023-02-13T07:19:40.164Z,32.17
2023-02-13T07:22:08.571Z,32.12
2023-02-13T07:24:38.654Z,32.09
2023-02-13T07:27:07.332Z,32.30
2023-02-13T07:29:35.995Z,31.86
2023-02-13T07:32:04.438Z,31.34
2023-02-13T07:34:34.663Z,30.40
2023-02-13T07:37:03.074Z,29.96
2023-02-13T07:39:32.549Z,29.76
2023-02-13T07:42:01.079Z,29.80
2023-02-13T07:44:29.585Z,29.01
2023-02-13T07:46:58.111Z,27.72
2023-02-13T07:49:26.784Z,26.77
2023-02-13T07:51:57.645Z,26.45
2023-02-13T07:54:26.236Z,26.72
2023-02-13T07:56:54.566Z,27.06
2023-02-13T07:59:23.253Z,27.13
2023-02-13T08:01:51.689Z,27.57
2023-02-13T08:04:20.216Z,28.43
2023-02-13T08:06:48.513Z,28.74
2023-02-13T08:09:40.788Z,28.55
2023-02-13T08:12:10.206Z,28.33
2023-02-13T08:14:38.754Z,28.20
2023-02-13T08:17:06.982Z,27.98
2023-02-13T08:19:35.610Z,28.38
2023-02-13T08:22:03.966Z,28.40
2023-02-13T08:24:33.962Z,28.82
2023-02-13T08:27:02.464Z,29.22
2023-02-13T08:29:31.183Z,29.14
2023-02-13T08:31:59.557Z,29.73
2023-02-13T08:34:28.323Z,30.02
2023-02-13T08:36:56.591Z,30.34
2023-02-13T08:39:25.234Z,30.38
2023-02-13T08:41:54.925Z,30.61
2023-02-13T08:44:23.527Z,30.53
2023-02-13T08:46:53.081Z,30.81
2023-02-13T08:49:21.790Z,31.05
2023-02-13T08:51:50.165Z,30.89
2023-02-13T08:54:18.722Z,30.59
2023-02-13T08:56:46.946Z,31.01
2023-02-13T08:59:16.794Z,30.77
2023-02-13T09:01:45.088Z,30.83
2023-02-13T09:04:15.911Z,31.16
2023-02-13T09:06:44.366Z,31.28
2023-02-13T09:09:13.069Z,31.75
2023-02-13T09:11:41.259Z,32.08
2023-02-13T09:14:09.828Z,31.83
2023-02-13T09:16:39.532Z,31.67
2023-02-13T09:19:08.689Z,31.87
2023-02-13T09:21:37.501Z,31.79
2023-02-13T09:24:08.881Z,31.35
2023-02-13T09:26:37.351Z,31.62
2023-02-13T09:29:05.934Z,31.72
2023-02-13T09:31:34.400Z,31.89
2023-02-13T09:34:04.414Z,31.75
2023-02-13T09:36:33.303Z,32.27
2023-02-13T09:39:01.971Z,32.20
2023-02-13T09:41:31.922Z,32.00
2023-02-13T09:44:02.566Z,31.97
2023-02-13T09:46:34.275Z,32.00
2023-02-13T09:49:08.650Z,31.70
2023-02-13T09:51:37.260Z,31.87
2023-02-13T09:54:07.801Z,31.59
2023-02-13T09:56:50.150Z,31.47
2023-02-13T09:59:33.108Z,31.57
2023-02-13T10:02:03.684Z,32.29
2023-02-13T10:04:49.846Z,30.98
2023-02-13T10:07:22.052Z,31.54
2023-02-13T10:09:57.010Z,31.22
2023-02-13T10:12:38.529Z,31.12
2023-02-13T10:15:17.399Z,30.95
2023-02-13T10:17:46.920Z,30.98
2023-02-13T10:20:26.584Z,30.68
2023-02-13T10:22:58.234Z,30.81
2023-02-13T10:25:28.696Z,31.83
2023-02-13T10:28:00.018Z,31.83
2023-02-13T10:30:31.944Z,32.34
2023-02-13T10:33:20.627Z,32.52
2023-02-13T10:35:54.763Z,32.21
2023-02-13T10:38:24.866Z,32.36
2023-02-13T10:41:06.309Z,31.88
2023-02-13T10:43:40.571Z,32.12
2023-02-13T10:46:15.777Z,32.18
2023-02-13T10:48:56.525Z,32.23
2023-02-13T10:51:33.650Z,32.15
2023-02-13T10:54:23.907Z,31.81
2023-02-13T10:56:57.437Z,32.84
2023-02-13T10:59:36.325Z,32.52
2023-02-13T11:02:14.742Z,32.33
2023-02-13T11:04:44.985Z,32.85
2023-02-13T11:07:17.033Z,32.48
2023-02-13T11:09:46.873Z,33.08
2023-02-13T11:12:25.787Z,32.70
2023-02-13T11:14:58.852Z,33.29
2023-02-13T11:17:29.329Z,33.62
2023-02-13T11:19:59.458Z,33.75
2023-02-13T11:22:33.581Z,33.62
2023-02-13T11:25:04.468Z,33.64
2023-02-13T11:27:35.457Z,33.49
2023-02-13T11:30:13.112Z,33.31
2023-02-13T11:32:41.572Z,33.76
2023-02-13T11:35:29.224Z,33.07
2023-02-13T11:41:07.255Z,33.15
2023-02-13T11:43:37.979Z,33.20
2023-02-13T11:46:09.070Z,33.16
2023-02-13T11:48:37.836Z,33.11
2023-02-13T11:51:06.388Z,32.95
2023-02-13T11:53:37.972Z,32.91
2023-02-13T11:56:10.221Z,32.83
2023-02-13T11:58:39.365Z,33.82
2023-02-13T12:01:28.608Z,33.29
2023-02-13T12:04:02.636Z,33.90
2023-02-13T12:06:31.338Z,34.40
2023-02-13T12:08:59.935Z,34.53
2023-02-13T12:11:37.639Z,33.60
2023-02-13T12:14:06.860Z,34.17
2023-02-13T12:16:39.923Z,34.13
2023-02-13T12:19:13.442Z,34.39
2023-02-13T12:21:49.214Z,33.96
2023-02-13T12:24:28.022Z,34.37
2023-02-13T12:27:01.265Z,34.60
2023-02-13T12:29:45.942Z,34.14
2023-02-13T12:32:20.258Z,34.96
2023-02-13T12:35:01.971Z,35.11
2023-02-13T12:37:53.793Z,34.65
2023-02-13T12:40:41.628Z,34.84
2023-02-13T12:43:25.342Z,34.86
2023-02-13T12:45:57.925Z,35.21
2023-02-13T12:48:36.110Z,34.55
2023-02-13T12:51:11.924Z,35.08
2023-02-13T12:53:49.610Z,34.65
2023-02-13T12:56:34.934Z,34.67
2023-02-13T12:59:09.909Z,35.02
2023-02-13T13:02:09.625Z,34.52
2023-02-13T13:04:52.350Z,34.29
2023-02-13T13:07:34.297Z,34.43
2023-02-13T13:10:18.221Z,34.23
2023-02-13T13:12:52.919Z,34.24
2023-02-13T13:15:29.849Z,34.52
2023-02-13T13:18:09.576Z,34.93
2023-02-13T13:20:51.651Z,34.61
2023-02-13T13:23:22.807Z,34.93
2023-02-13T13:25:57.994Z,35.43
2023-02-13T13:28:31.006Z,35.53
2023-02-13T13:31:01.548Z,35.64
2023-02-13T13:33:30.337Z,35.84
2023-02-13T13:36:03.637Z,35.46
2023-02-13T13:38:41.174Z,35.79
2023-02-13T13:41:15.841Z,35.80
2023-02-13T13:43:58.616Z,35.92
2023-02-13T13:46:37.202Z,35.11
2023-02-13T13:49:16.846Z,34.91
2023-02-13T13:51:45.013Z,35.36
2023-02-13T13:54:36.230Z,34.38
2023-02-13T13:57:09.080Z,34.65
2023-02-13T14:00:03.564Z,33.92
2023-02-13T14:02:42.609Z,34.20
2023-02-13T14:05:30.233Z,34.35
2023-02-13T14:08:00.519Z,35.39
2023-02-13T14:11:08.786Z,34.69
2023-02-13T14:13:39.184Z,35.67
2023-02-13T14:16:11.654Z,35.26
2023-02-13T14:18:47.061Z,35.04
2023-02-13T14:21:24.134Z,35.09
2023-02-13T14:23:53.921Z,35.08
2023-02-13T14:26:36.259Z,34.13
2023-02-13T14:29:22.225Z,34.47
2023-02-13T14:32:05.635Z,33.70
2023-02-13T14:34:36.977Z,34.27
2023-02-13T14:37:35.402Z,34.02
2023-02-13T14:40:54.187Z,33.83
2023-02-13T14:43:40.363Z,34.82
2023-02-13T14:46:15.069Z,34.87
2023-02-13T14:48:46.814Z,35.12
2023-02-13T14:51:28.665Z,34.72
2023-02-13T14:54:01.216Z,34.58
2023-02-13T14:56:30.661Z,34.98
2023-02-13T14:59:03.913Z,34.53
2023-02-13T15:01:34.751Z,34.68
2023-02-13T15:04:08.917Z,34.14
2023-02-13T15:06:41.574Z,34.25
2023-02-13T15:09:21.325Z,34.08
2023-02-13T15:11:49.620Z,34.47
2023-02-13T15:14:24.113Z,34.05
2023-02-13T15:16:55.399Z,33.73
2023-02-13T15:19:25.087Z,33.51
2023-02-13T15:21:59.436Z,33.13
2023-02-13T15:24:36.671Z,33.29
2023-02-13T15:27:06.636Z,33.27
2023-02-13T15:29:47.909Z,33.63
2023-02-13T15:32:22.313Z,33.14
2023-02-13T15:34:51.053Z,33.56
2023-02-13T15:37:25.472Z,33.06
2023-02-13T15:39:53.989Z,34.07
2023-02-13T15:42:22.487Z,33.93
2023-02-13T15:44:52.757Z,33.50
2023-02-13T15:47:26.811Z,33.04
2023-02-13T15:49:55.622Z,33.72
2023-02-13T15:52:30.763Z,33.61
2023-02-13T15:54:59.906Z,34.38
2023-02-13T15:57:29.206Z,34.36
2023-02-13T15:59:59.075Z,34.37
2023-02-13T16:02:30.354Z,34.00
2023-02-13T16:04:59.091Z,34.65
2023-02-13T16:07:30.670Z,34.90
2023-02-13T16:10:17.441Z,34.48
2023-02-13T16:12:49.389Z,34.91
2023-02-13T16:15:20.025Z,35.21
2023-02-13T16:17:49.002Z,35.23
2023-02-13T16:20:21.780Z,35.00
2023-02-13T16:22:53.696Z,34.74
2023-02-13T16:25:27.409Z,34.63
2023-02-13T16:27:59.667Z,34.92
2023-02-13T16:30:34.872Z,34.46
2023-02-13T16:33:24.690Z,34.43
2023-02-13T16:35:55.321Z,34.98
2023-02-13T16:38:34.716Z,34.25
2023-02-13T16:41:06.018Z,34.79
2023-02-13T16:43:36.102Z,34.89
2023-02-13T16:46:32.570Z,34.34
2023-02-13T16:49:26.927Z,34.69
2023-02-13T16:52:12.575Z,34.02
2023-02-13T16:54:51.075Z,33.83
2023-02-13T16:57:23.172Z,34.21
2023-02-13T16:59:57.935Z,33.68
2023-02-13T17:02:27.913Z,34.08
2023-02-13T17:04:59.451Z,33.98
2023-02-13T17:07:29.861Z,34.07
2023-02-13T17:10:01.819Z,33.60
2023-02-13T17:12:32.070Z,33.72
2023-02-13T17:15:01.388Z,33.62
2023-02-13T17:17:31.737Z,33.46
2023-02-13T17:20:00.885Z,33.62
2023-02-13T17:22:35.518Z,32.83
2023-02-13T17:25:07.565Z,32.87
2023-02-13T17:27:36.346Z,33.15
2023-02-13T17:30:05.227Z,33.13
2023-02-13T17:32:34.151Z,33.11
2023-02-13T17:35:02.480Z,33.14
2023-02-13T17:37:33.212Z,33.20
2023-02-13T17:40:01.695Z,33.00
2023-02-13T17:42:32.810Z,32.52
2023-02-13T17:45:01.480Z,32.93
2023-02-13T17:47:31.205Z,32.92
2023-02-13T17:50:09.197Z,32.56
2023-02-13T17:52:39.460Z,32.61
2023-02-13T17:55:09.988Z,32.67
2023-02-13T17:57:40.760Z,32.36
2023-02-13T18:00:10.267Z,32.19
2023-02-13T18:02:39.042Z,32.31
2023-02-13T18:05:08.291Z,32.56
2023-02-13T18:07:37.339Z,32.68
2023-02-13T18:10:06.689Z,32.77
2023-02-13T18:12:35.641Z,32.83
2023-02-13T18:15:06.248Z,32.66
2023-02-13T18:17:34.971Z,32.86
2023-02-13T18:20:03.457Z,32.70
2023-02-13T18:22:32.402Z,32.55
2023-02-13T18:25:02.146Z,32.33
2023-02-13T18:27:31.011Z,32.47
2023-02-13T18:29:59.650Z,32.86
2023-02-13T18:32:30.153Z,33.01
2023-02-13T18:34:58.597Z,32.78
2023-02-13T18:37:29.676Z,32.72
2023-02-13T18:39:58.650Z,32.80
2023-02-13T18:42:27.802Z,32.59
2023-02-13T18:44:56.248Z,32.71
2023-02-13T18:47:25.069Z,32.77
2023-02-13T18:49:54.736Z,32.61
2023-02-13T18:52:23.336Z,32.67
2023-02-13T18:54:51.764Z,33.10
2023-02-13T18:57:20.812Z,33.15
2023-02-13T18:59:49.494Z,33.16
2023-02-13T19:02:19.234Z,33.11
2023-02-13T19:04:48.178Z,33.00
2023-02-13T19:07:18.310Z,33.08
2023-02-13T19:09:46.527Z,33.37
2023-02-13T19:12:15.304Z,33.54
2023-02-13T19:14:44.637Z,33.48
2023-02-13T19:17:13.388Z,33.33
2023-02-13T19:19:41.719Z,33.08
2023-02-13T19:22:10.477Z,33.07
2023-02-13T19:24:41.657Z,32.96
2023-02-13T19:27:10.457Z,33.13
2023-02-13T19:29:38.762Z,33.12
2023-02-13T19:32:07.477Z,32.79
2023-02-13T19:34:35.883Z,32.85
2023-02-13T19:37:04.581Z,32.76
2023-02-13T19:39:32.954Z,33.11
2023-02-13T19:42:03.108Z,32.84
2023-02-13T19:44:32.064Z,32.85
2023-02-13T19:47:00.769Z,33.06
2023-02-13T19:49:29.291Z,32.96
2023-02-13T19:51:57.917Z,33.07
2023-02-13T19:54:26.662Z,33.21
2023-02-13T19:57:00.419Z,33.39
2023-02-13T19:59:32.636Z,33.02
2023-02-13T20:02:01.357Z,33.37
2023-02-13T20:04:29.689Z,33.48
2023-02-13T20:06:58.703Z,33.30
2023-02-13T20:09:27.197Z,33.69
2023-02-13T20:11:55.828Z,33.60
2023-02-13T20:14:24.767Z,33.61
2023-02-13T20:16:54.911Z,33.44
2023-02-13T20:19:23.574Z,33.74
2023-02-13T20:21:52.248Z,33.90
2023-02-13T20:24:20.562Z,33.77
2023-02-13T20:26:49.608Z,33.79
2023-02-13T20:29:18.173Z,33.72
2023-02-13T20:31:46.880Z,33.89
2023-02-13T20:34:16.717Z,33.67
2023-02-13T20:36:45.442Z,33.78
2023-02-13T20:39:13.909Z,33.87
2023-02-13T20:41:42.760Z,33.78
2023-02-13T20:44:13.384Z,33.54
2023-02-13T20:46:42.569Z,33.65
2023-02-13T20:49:12.863Z,33.79
2023-02-13T20:51:42.903Z,33.51
2023-02-13T20:54:11.420Z,33.84
2023-02-13T20:56:40.303Z,33.70
2023-02-13T20:59:08.761Z,33.72
2023-02-13T21:01:41.434Z,33.67
2023-02-13T21:04:13.749Z,33.63
2023-02-13T21:06:44.271Z,33.62
2023-02-13T21:09:12.986Z,33.55
2023-02-13T21:11:44.130Z,33.31
2023-02-13T21:14:13.443Z,33.59
2023-02-13T21:16:43.362Z,33.49
2023-02-13T21:19:15.287Z,33.41
2023-02-13T21:21:46.015Z,33.48
2023-02-13T21:24:16.633Z,33.34
2023-02-13T21:26:46.063Z,33.70
2023-02-13T21:29:14.542Z,33.93
2023-02-13T21:31:47.687Z,33.61
2023-02-13T21:34:17.032Z,33.73
2023-02-13T21:36:47.451Z,33.67
2023-02-13T21:39:15.954Z,34.07
2023-02-13T21:41:46.211Z,33.73
2023-02-13T21:44:15.359Z,34.14
2023-02-13T21:46:45.260Z,34.38
2023-02-13T21:49:15.586Z,34.26
2023-02-13T21:51:44.462Z,34.30
2023-02-13T21:54:14.897Z,34.15
2023-02-13T21:56:44.635Z,34.55
2023-02-13T21:59:16.548Z,34.39
2023-02-13T22:01:46.238Z,34.69
2023-02-13T22:04:15.016Z,34.70
2023-02-13T22:06:43.766Z,34.85
2023-02-13T22:09:14.748Z,34.88
2023-02-13T22:11:44.016Z,34.77
2023-02-13T22:14:14.424Z,34.87
2023-02-13T22:16:43.905Z,34.96
2023-02-13T22:19:14.560Z,34.90
2023-02-13T22:21:43.405Z,35.02
2023-02-13T22:24:12.080Z,34.92
2023-02-13T22:26:46.721Z,34.81
2023-02-13T22:29:17.829Z,34.75
2023-02-13T22:31:46.405Z,33.74
2023-02-13T22:34:15.321Z,34.76
2023-02-13T22:36:43.900Z,34.80
2023-02-13T22:39:13.397Z,34.43
2023-02-13T22:41:45.736Z,34.55
2023-02-13T22:44:14.467Z,34.80
2023-02-13T22:46:42.972Z,34.87
2023-02-13T22:49:11.610Z,34.98
2023-02-13T22:51:40.295Z,34.77
2023-02-13T22:54:08.857Z,35.03
2023-02-13T22:56:37.458Z,34.96
2023-02-13T22:59:07.250Z,34.41
2023-02-13T23:01:37.611Z,34.64
2023-02-13T23:04:06.149Z,34.65
2023-02-13T23:06:35.089Z,34.75
2023-02-13T23:09:03.416Z,35.03
2023-02-13T23:11:49.203Z,34.83
2023-02-13T23:14:19.114Z,34.66
2023-02-13T23:17:05.136Z,35.02
2023-02-13T23:19:33.687Z,35.10
2023-02-13T23:22:02.506Z,35.13
2023-02-13T23:24:31.600Z,35.04
2023-02-13T23:27:00.812Z,34.95
2023-02-13T23:29:30.795Z,34.45
2023-02-13T23:32:00.539Z,34.54
2023-02-13T23:34:29.425Z,34.39
2023-02-13T23:36:58.007Z,34.26
2023-02-13T23:39:26.422Z,34.32
2023-02-13T23:41:55.387Z,34.17
2023-02-13T23:44:23.728Z,34.17
2023-02-13T23:46:53.903Z,34.08
2023-02-13T23:49:22.269Z,33.86
2023-02-13T23:51:50.993Z,33.89
2023-02-13T23:54:21.437Z,33.87
2023-02-13T23:56:51.107Z,33.32
2023-02-13T23:59:20.796Z,33.26
